Galesburg, IL

6:34 PM CDT on August 31, 2016 (GMT -0500)
Galesburg Municipal

Weather History for KGBG - December, 2011

Change the Weather History Date:

Monday, December 19, 2011

  Actual Average Record
Temperature  
Mean Temperature 44 °F -  
Max Temperature 50 °F 34 °F 59 °F (1988)
Min Temperature 38 °F 19 °F -18 °F (1983)
Degree Days  
Heating Degree Days 21    
Moisture  
Dew Point 35 °F    
Average Humidity 66    
Maximum Humidity 78    
Minimum Humidity 58    
Precipitation  
Precipitation 0.00 in - - ()
Sea Level Pressure  
Sea Level Pressure 30.01 in    
Wind  
Wind Speed 10 mph (West)    
Max Wind Speed 15 mph    
Max Gust Speed 20 mph    
Visibility 10 miles    
Events      
Averages and records for this station are not official NWS values.
T = Trace of Precipitation, MM = Missing Value Source: NWS Daily Summary

Daily Weather History Graph

Daily Weather History Graph

Search for Another Location

Airport or City:

Trip Planner

Search our weather history database for the weather conditions in past years. The results will help you decide how hot, cold, wet, or windy it might be!

Date:

Astronomy

Dec. 19, 2011 Rise Set
Actual Time 7:21 AM CST 4:35 PM CST
Civil Twilight 6:50 AM CST 5:06 PM CST
Nautical Twilight 6:16 AM CST 5:41 PM CST
Astronomical Twilight 5:42 AM CST 6:15 PM CST
Moon 1:30 AM CST (12/19) 12:35 PM CST (12/19)
Length of Visible Light 10h 16m
Length of Day
9h 14m
Waning Crescent, 31% of the Moon is Illuminated
Dec 19
Waning Crescent
Dec 24
New
Jan 1
First Quarter
Jan 9
Full
Jan 16
Last Quarter

Hourly Weather History & Observations

Time (CST) Temp. Windchill Dew Point Humidity Pressure Visibility Wind Dir Wind Speed Gust Speed Precip Events Conditions
12:15 AM 48.2 °F - 35.6 °F 62% 29.89 in 10.0 mi South 10.4 mph - N/A   Overcast
12:35 AM 48.0 °F - 36.3 °F 64% 29.89 in 10.0 mi South 10.4 mph - N/A   Overcast
12:55 AM 49.1 °F - 36.5 °F 62% 29.89 in 10.0 mi SSW 11.5 mph - N/A   Overcast
1:15 AM 50.0 °F - 36.3 °F 59% 29.89 in 10.0 mi South 12.7 mph - N/A   Overcast
1:35 AM 50.2 °F - 36.1 °F 59% 29.89 in 10.0 mi SSW 12.7 mph - N/A   Overcast
1:55 AM 50.2 °F - 36.0 °F 58% 29.89 in 10.0 mi South 13.8 mph - N/A   Overcast
2:15 AM 50.0 °F - 35.8 °F 58% 29.89 in 10.0 mi South 13.8 mph - N/A   Overcast
2:35 AM 49.8 °F - 35.8 °F 59% 29.89 in 10.0 mi South 12.7 mph - N/A   Overcast
2:55 AM 49.6 °F - 35.6 °F 59% 29.89 in 10.0 mi South 12.7 mph - N/A   Overcast
3:15 AM 49.6 °F - 35.6 °F 59% 29.89 in 10.0 mi SSW 11.5 mph - N/A   Overcast
3:35 AM 49.3 °F - 35.6 °F 59% 29.89 in 10.0 mi SSW 10.4 mph - N/A   Overcast
3:55 AM 49.1 °F - 35.6 °F 60% 29.88 in 10.0 mi SSW 10.4 mph - N/A   Overcast
4:15 AM 48.9 °F - 35.6 °F 60% 29.88 in 10.0 mi SSW 9.2 mph - N/A   Overcast
4:35 AM 49.1 °F - 35.4 °F 59% 29.89 in 10.0 mi SSW 8.1 mph - N/A   Overcast
4:55 AM 49.1 °F - 35.4 °F 59% 29.89 in 10.0 mi SSW 10.4 mph - N/A   Overcast
5:15 AM 49.1 °F - 35.6 °F 60% 29.89 in 10.0 mi SSW 10.4 mph - N/A   Overcast
5:35 AM 48.4 °F - 35.8 °F 62% 29.90 in 10.0 mi SSW 10.4 mph - N/A   Overcast
5:55 AM 47.8 °F - 35.1 °F 61% 29.91 in 10.0 mi SSW 10.4 mph - N/A   Overcast
6:15 AM 47.3 °F - 35.2 °F 63% 29.91 in 10.0 mi SSW 9.2 mph - N/A   Overcast
6:35 AM 45.7 °F 41.0 °F 34.9 °F 66% 29.91 in 10.0 mi SSW 9.2 mph - N/A   Overcast
6:55 AM 45.0 °F 40.1 °F 34.9 °F 68% 29.92 in 10.0 mi SSW 9.2 mph - N/A   Overcast
7:15 AM 45.1 °F 40.3 °F 35.1 °F 68% 29.93 in 10.0 mi SSW 9.2 mph - N/A   Overcast
7:35 AM 46.4 °F 42.4 °F 35.6 °F 66% 29.94 in 10.0 mi SSW 8.1 mph - N/A   Overcast
7:55 AM 46.6 °F - 35.6 °F 66% 29.94 in 10.0 mi SSW 6.9 mph - N/A   Overcast
8:15 AM 46.4 °F 42.4 °F 36.0 °F 67% 29.95 in 10.0 mi SSW 8.1 mph - N/A   Overcast
8:35 AM 45.5 °F 41.3 °F 35.8 °F 69% 29.96 in 10.0 mi SSW 8.1 mph - N/A   Mostly Cloudy
8:55 AM 45.7 °F 41.5 °F 35.8 °F 68% 29.97 in 10.0 mi SSW 8.1 mph - N/A   Scattered Clouds
9:15 AM 49.5 °F - 36.5 °F 61% 29.97 in 10.0 mi SSW 9.2 mph - N/A   Clear
9:35 AM 49.5 °F - 36.7 °F 61% 29.99 in 10.0 mi SW 9.2 mph - N/A   Clear
9:55 AM 50.9 °F - 36.9 °F 59% 29.98 in 10.0 mi SW 9.2 mph 16.1 mph N/A   Clear
10:15 AM 50.5 °F - 36.7 °F 59% 29.99 in 10.0 mi WSW 15.0 mph 19.6 mph N/A   Clear
10:35 AM 50.0 °F - 36.7 °F 60% 29.99 in 10.0 mi WSW 11.5 mph - N/A   Clear
10:55 AM 50.0 °F - 37.4 °F 62% 29.99 in 10.0 mi West 10.4 mph - N/A   Clear
11:15 AM 49.5 °F - 37.0 °F 62% 30.00 in 10.0 mi West 12.7 mph - N/A   Clear
11:35 AM 48.4 °F - 37.2 °F 65% 29.99 in 10.0 mi WNW 11.5 mph - N/A   Clear
11:55 AM 48.4 °F - 37.0 °F 65% 29.99 in 10.0 mi West 9.2 mph - N/A   Clear
12:15 PM 48.6 °F - 37.6 °F 66% 30.00 in 10.0 mi West 9.2 mph - N/A   Clear
12:35 PM 48.2 °F - 37.2 °F 66% 29.98 in 10.0 mi WNW 9.2 mph - N/A   Clear
12:55 PM 48.4 °F - 37.6 °F 66% 29.98 in 10.0 mi West 8.1 mph - N/A   Clear
1:15 PM 49.1 °F - 37.8 °F 65% 29.99 in 10.0 mi WNW 8.1 mph - N/A   Scattered Clouds
1:35 PM 49.1 °F - 37.2 °F 64% 29.99 in 10.0 mi WNW 8.1 mph - N/A   Scattered Clouds
1:55 PM 48.2 °F - 36.7 °F 64% 30.00 in 10.0 mi West 8.1 mph - N/A   Scattered Clouds
2:15 PM 48.7 °F - 37.4 °F 65% 30.01 in 10.0 mi WNW 8.1 mph - N/A   Scattered Clouds
2:35 PM 48.2 °F - 37.0 °F 65% 30.01 in 10.0 mi NW 9.2 mph - N/A   Scattered Clouds
2:55 PM 47.5 °F - 36.5 °F 66% 30.02 in 10.0 mi NW 9.2 mph - N/A   Clear
3:15 PM 47.1 °F - 36.3 °F 66% 30.03 in 10.0 mi NW 8.1 mph - N/A   Clear
3:35 PM 46.8 °F - 36.7 °F 68% 30.05 in 10.0 mi NNW 8.1 mph - N/A   Clear
3:55 PM 46.4 °F 42.9 °F 36.5 °F 68% 30.05 in 10.0 mi NNW 6.9 mph - N/A   Scattered Clouds
4:15 PM 45.9 °F 40.4 °F 35.4 °F 67% 30.05 in 10.0 mi North 11.5 mph - N/A   Scattered Clouds
4:35 PM 45.1 °F 39.9 °F 35.4 °F 69% 30.05 in 10.0 mi North 10.4 mph - N/A   Clear
4:55 PM 44.6 °F 40.2 °F 35.6 °F 71% 30.08 in 10.0 mi NNW 8.1 mph - N/A   Clear
5:15 PM 44.2 °F 40.3 °F 35.4 °F 71% 30.09 in 10.0 mi NNW 6.9 mph - N/A   Mostly Cloudy
5:35 PM 43.9 °F 39.3 °F 35.6 °F 73% 30.10 in 10.0 mi NNW 8.1 mph - N/A   Overcast
5:55 PM 44.2 °F 40.3 °F 35.6 °F 72% 30.12 in 10.0 mi North 6.9 mph - N/A   Overcast
6:15 PM 44.4 °F 41.2 °F 35.6 °F 71% 30.14 in 10.0 mi North 5.8 mph - N/A   Overcast
6:35 PM 43.7 °F 38.6 °F 35.2 °F 72% 30.15 in 10.0 mi NNW 9.2 mph - N/A   Overcast
6:55 PM 44.6 °F 38.4 °F 35.6 °F 71% 30.15 in 10.0 mi North 12.7 mph 17.3 mph N/A   Overcast
7:15 PM 43.0 °F 36.0 °F 33.6 °F 70% 30.14 in 10.0 mi NNE 13.8 mph - N/A   Overcast
7:35 PM 42.4 °F 35.7 °F 33.8 °F 71% 30.13 in 10.0 mi NNE 12.7 mph - N/A   Overcast
7:55 PM 41.9 °F 34.3 °F 33.6 °F 72% 30.14 in 10.0 mi North 15.0 mph - N/A   Mostly Cloudy
8:15 PM 41.4 °F 34.0 °F 32.9 °F 72% 30.14 in 10.0 mi North 13.8 mph - N/A   Scattered Clouds
8:35 PM 40.8 °F 32.9 °F 32.9 °F 73% 30.16 in 10.0 mi North 15.0 mph 19.6 mph N/A   Scattered Clouds
8:55 PM 39.7 °F 31.9 °F 32.4 °F 75% 30.17 in 10.0 mi North 13.8 mph - N/A   Mostly Cloudy
9:15 PM 39.2 °F 33.0 °F 32.0 °F 75% 30.18 in 10.0 mi North 9.2 mph - N/A   Mostly Cloudy
9:35 PM 38.7 °F 32.4 °F 32.0 °F 77% 30.18 in 10.0 mi North 9.2 mph - N/A   Overcast
9:55 PM 38.5 °F 30.7 °F 32.0 °F 78% 30.17 in 10.0 mi North 12.7 mph 16.1 mph N/A   Overcast
10:15 PM 38.3 °F 31.4 °F 31.1 °F 75% 30.16 in 10.0 mi North 10.4 mph - N/A   Overcast
10:35 PM 38.3 °F 30.5 °F 30.9 °F 75% 30.17 in 10.0 mi North 12.7 mph - N/A   Overcast
10:55 PM 38.3 °F 31.4 °F 30.7 °F 74% 30.17 in 10.0 mi NNE 10.4 mph - N/A   Overcast
11:15 PM 38.3 °F 32.5 °F 30.7 °F 74% 30.16 in 10.0 mi NNE 8.1 mph - N/A   Overcast
11:35 PM 38.3 °F 31.4 °F 30.6 °F 74% 30.16 in 10.0 mi NNE 10.4 mph - N/A   Overcast
11:55 PM 39.2 °F 33.0 °F 30.2 °F 70% 30.15 in 10.0 mi NNE 9.2 mph - N/A   Overcast